createdAt,value
2022-09-07T00:03:29.831Z,36.73
2022-09-07T00:10:09.285Z,36.64
2022-09-07T00:16:45.278Z,36.56
2022-09-07T00:23:36.868Z,36.5
2022-09-07T00:30:12.127Z,36.6
2022-09-07T00:36:59.859Z,36.53
2022-09-07T00:43:33.422Z,36.5
2022-09-07T00:50:34.383Z,36.54
2022-09-07T00:57:23.834Z,36.46
2022-09-07T01:04:06.316Z,36.46
2022-09-07T01:11:07.601Z,36.47
2022-09-07T01:18:03.569Z,36.44
2022-09-07T01:25:07.554Z,36.5
2022-09-07T01:32:17.751Z,36.53
2022-09-07T01:39:37.350Z,36.47
2022-09-07T01:46:46.475Z,36.39
2022-09-07T01:54:07.346Z,36.41
2022-09-07T02:01:15.671Z,36.44
2022-09-07T02:08:27.358Z,36.45
2022-09-07T02:15:38.390Z,36.41
2022-09-07T02:22:37.386Z,36.45
2022-09-07T02:29:34.427Z,36.41
2022-09-07T02:36:05.431Z,36.44
2022-09-07T02:42:53.788Z,36.46
2022-09-07T02:50:06.345Z,36.47
2022-09-07T02:57:11.685Z,36.53
2022-09-07T03:04:26.356Z,36.51
2022-09-07T03:11:30.426Z,36.5
2022-09-07T03:18:09.322Z,36.55
2022-09-07T03:24:45.383Z,36.57
2022-09-07T03:31:35.663Z,36.51
2022-09-07T03:38:00.394Z,36.53
2022-09-07T03:44:34.637Z,36.54
2022-09-07T03:51:10.448Z,36.54
2022-09-07T03:57:50.628Z,36.53
2022-09-07T04:04:17.397Z,36.52
2022-09-07T04:10:43.434Z,36.5
2022-09-07T04:17:08.529Z,36.51
2022-09-07T04:23:36.300Z,36.55
2022-09-07T04:30:14.689Z,36.52
2022-09-07T04:36:59.891Z,36.58
2022-09-07T04:43:37.416Z,36.55
2022-09-07T04:50:25.842Z,36.57
2022-09-07T04:57:43.880Z,36.63
2022-09-07T05:04:13.229Z,36.64
2022-09-07T05:10:49.738Z,36.65
2022-09-07T05:17:30.780Z,36.65
2022-09-07T05:24:01.375Z,36.62
2022-09-07T05:37:18.312Z,36.68
2022-09-07T05:44:47.366Z,36.64
2022-09-07T05:52:29.375Z,36.51
2022-09-07T05:59:47.327Z,36.5
2022-09-07T06:06:34.416Z,36.34
2022-09-07T06:14:29.708Z,36.28
2022-09-07T06:22:33.446Z,36.62
2022-09-07T06:30:26.568Z,36.79
2022-09-07T06:38:18.831Z,36.68
2022-09-07T06:45:00.288Z,36.44
2022-09-07T06:51:58.409Z,36.31
2022-09-07T06:58:30.975Z,36.52
2022-09-07T07:05:27.171Z,36.59
2022-09-07T07:12:48.579Z,36.6
2022-09-07T07:20:11.172Z,36.56
2022-09-07T07:35:52.929Z,36.63
2022-09-07T07:43:00.673Z,36.51
2022-09-07T07:57:12.008Z,36.54
2022-09-07T08:03:06.435Z,36.53
2022-09-07T08:09:38.201Z,36.43
2022-09-07T08:16:16.456Z,36.37
2022-09-07T08:22:50.876Z,36.36
2022-09-07T08:29:19.454Z,36.4
2022-09-07T08:35:58.879Z,36.38
2022-09-07T08:42:39.776Z,36.38
2022-09-07T08:49:51.318Z,36.31
2022-09-07T09:11:41.708Z,36.35
2022-09-07T09:18:54.934Z,36.37
2022-09-07T09:26:18.913Z,36.2
2022-09-07T09:33:00.552Z,36.19
2022-09-07T09:39:52.671Z,36.19
2022-09-07T09:54:17.081Z,36.19
2022-09-07T10:01:21.527Z,36.22
2022-09-07T10:08:27.744Z,36.25
2022-09-07T10:15:18.959Z,36.21
2022-09-07T10:22:18.942Z,36.18
2022-09-07T10:29:07.953Z,36.16
2022-09-07T10:36:06.955Z,36.15
2022-09-07T10:43:25.013Z,36.14
2022-09-07T10:50:27.876Z,36.19
2022-09-07T10:57:49.191Z,36.2
2022-09-07T11:04:47.910Z,36.23
2022-09-07T11:12:04.599Z,36.22
2022-09-07T11:19:37.594Z,36.27
2022-09-07T11:26:42.011Z,36.18
2022-09-07T11:34:26.254Z,36.14
2022-09-07T11:41:35.590Z,36.07
2022-09-07T11:48:41.052Z,36.12
2022-09-07T11:55:56.545Z,36.09
2022-09-07T12:03:07.936Z,36.26
2022-09-07T12:09:55.824Z,36.42
2022-09-07T12:16:45.406Z,36.39
2022-09-07T12:23:42.987Z,36.47
2022-09-07T12:30:34.162Z,36.38
2022-09-07T12:37:31.007Z,36.48
2022-09-07T12:44:19.593Z,36.45
2022-09-07T12:58:45.641Z,36.08
2022-09-07T13:06:03.011Z,36.19
2022-09-07T13:13:00.723Z,36.28
2022-09-07T13:20:07.922Z,36.39
2022-09-07T13:27:22.098Z,36.35
2022-09-07T13:34:44.978Z,36.45
2022-09-07T13:41:53.687Z,36.47
2022-09-07T13:49:13.735Z,36.53
2022-09-07T13:56:19.921Z,36.62
2022-09-07T14:03:42.645Z,36.53
2022-09-07T14:10:47.627Z,36.44
2022-09-07T14:18:00.782Z,36.49
2022-09-07T14:24:40.824Z,36.51
2022-09-07T14:31:35.162Z,36.54
2022-09-07T14:38:12.816Z,36.54
2022-09-07T14:44:58.755Z,36.48
2022-09-07T14:52:07.962Z,36.43
2022-09-07T14:59:01.755Z,36.56
2022-09-07T15:06:01.631Z,36.56
2022-09-07T15:12:58.144Z,36.58
2022-09-07T15:20:04.220Z,36.62
2022-09-07T15:27:04.273Z,36.62
2022-09-07T15:33:31.378Z,36.52
2022-09-07T15:40:12.749Z,36.59
2022-09-07T15:54:14.554Z,36.62
2022-09-07T16:00:27.146Z,36.65
2022-09-07T16:07:02.135Z,36.69
2022-09-07T16:13:31.915Z,36.69
2022-09-07T16:20:02.626Z,36.64
2022-09-07T16:26:37.695Z,36.64
2022-09-07T16:33:19.926Z,36.67
2022-09-07T16:39:50.381Z,36.64
2022-09-07T16:46:22.636Z,36.66
2022-09-07T16:52:55.100Z,36.67
2022-09-07T16:59:33.628Z,36.69
2022-09-07T17:06:09.663Z,36.64
2022-09-07T17:12:40.720Z,36.71
2022-09-07T17:19:33.879Z,36.67
2022-09-07T17:26:04.766Z,36.68
2022-09-07T17:32:46.831Z,36.7
2022-09-07T17:39:24.970Z,36.75
2022-09-07T17:45:49.923Z,36.76
2022-09-07T17:52:24.619Z,36.73
2022-09-07T17:58:51.474Z,36.82
2022-09-07T18:05:18.776Z,36.83
2022-09-07T18:11:54.700Z,36.86
2022-09-07T18:18:26.686Z,36.85
2022-09-07T18:24:50.837Z,36.88
2022-09-07T18:31:25.853Z,36.88
2022-09-07T18:38:02.181Z,36.85
2022-09-07T18:52:51.390Z,36.83
2022-09-07T18:58:32.959Z,36.75
2022-09-07T19:12:05.746Z,36.77
2022-09-07T19:18:43.235Z,36.78
2022-09-07T19:25:25.998Z,36.79
2022-09-07T19:31:49.993Z,36.79
2022-09-07T19:38:32.132Z,36.75
2022-09-07T19:45:07.850Z,36.81
2022-09-07T19:52:01.028Z,36.72
2022-09-07T19:58:37.303Z,36.78
2022-09-07T20:05:21.856Z,36.75
2022-09-07T20:11:54.317Z,36.8
2022-09-07T20:18:33.247Z,36.75
2022-09-07T20:25:01.154Z,36.75
2022-09-07T20:31:27.950Z,36.76
2022-09-07T20:38:03.258Z,36.82
2022-09-07T20:44:46.894Z,36.73
2022-09-07T20:51:21.560Z,36.68
2022-09-07T20:57:49.749Z,36.78
2022-09-07T21:04:24.897Z,36.87
2022-09-07T21:10:49.741Z,36.82
2022-09-07T21:17:38.857Z,36.75
2022-09-07T21:24:14.307Z,36.77
2022-09-07T21:30:57.552Z,36.63
2022-09-07T21:37:33.465Z,36.8
2022-09-07T21:43:59.914Z,36.65
2022-09-07T21:50:38.234Z,36.76
2022-09-07T21:57:15.280Z,36.83
2022-09-07T22:03:57.818Z,36.84
2022-09-07T22:10:28.743Z,36.74
2022-09-07T22:16:54.892Z,36.81
2022-09-07T22:23:28.145Z,36.89
2022-09-07T22:29:57.931Z,36.79
2022-09-07T22:36:26.097Z,36.83
2022-09-07T22:43:13.941Z,36.85
2022-09-07T22:49:46.205Z,36.84
2022-09-07T22:56:07.813Z,36.8
2022-09-07T23:02:57.887Z,36.81
2022-09-07T23:09:39.315Z,36.8
2022-09-07T23:16:21.411Z,36.79
2022-09-07T23:22:54.210Z,36.85
2022-09-07T23:29:19.319Z,36.86
2022-09-07T23:35:54.918Z,36.81
2022-09-07T23:42:27.023Z,36.82
2022-09-07T23:48:59.342Z,36.81
2022-09-07T23:55:29.042Z,36.86
